createdAt,value
2023-05-13T00:02:09.688Z,10.90
2023-05-13T00:04:56.465Z,10.36
2023-05-13T00:07:42.616Z,10.70
2023-05-13T00:10:28.700Z,10.81
2023-05-13T00:13:14.236Z,10.66
2023-05-13T00:16:00.597Z,10.63
2023-05-13T00:18:46.542Z,10.68
2023-05-13T00:21:33.848Z,10.59
2023-05-13T00:24:20.484Z,10.70
2023-05-13T00:27:06.657Z,10.73
2023-05-13T00:29:53.012Z,10.61
2023-05-13T00:32:39.296Z,10.68
2023-05-13T00:35:27.502Z,10.70
2023-05-13T00:38:13.865Z,10.48
2023-05-13T00:41:00.295Z,10.39
2023-05-13T00:43:46.918Z,10.38
2023-05-13T00:46:33.512Z,10.61
2023-05-13T00:49:19.291Z,10.35
2023-05-13T00:52:05.703Z,10.58
2023-05-13T00:54:51.862Z,10.53
2023-05-13T00:57:38.487Z,10.34
2023-05-13T01:00:25.218Z,10.43
2023-05-13T01:03:14.453Z,10.32
2023-05-13T01:06:28.176Z,10.26
2023-05-13T01:09:55.385Z,10.25
2023-05-13T01:12:43.951Z,10.23
2023-05-13T01:15:30.180Z,10.12
2023-05-13T01:18:20.878Z,9.73
2023-05-13T01:21:08.404Z,10.06
2023-05-13T01:23:55.758Z,10.15
2023-05-13T01:26:41.618Z,10.10
2023-05-13T01:29:28.147Z,9.97
2023-05-13T01:32:14.881Z,10.03
2023-05-13T01:35:01.432Z,9.81
2023-05-13T01:37:50.289Z,9.96
2023-05-13T01:40:38.413Z,10.04
2023-05-13T01:43:26.408Z,9.91
2023-05-13T01:46:13.618Z,10.00
2023-05-13T01:48:59.537Z,10.02
2023-05-13T01:51:46.100Z,10.38
2023-05-13T01:54:32.420Z,10.80
2023-05-13T01:57:24.053Z,10.48
2023-05-13T02:00:10.742Z,10.29
2023-05-13T02:03:00.379Z,10.50
2023-05-13T02:05:47.701Z,10.23
2023-05-13T02:08:34.112Z,10.00
2023-05-13T02:11:20.082Z,10.06
2023-05-13T02:14:06.227Z,9.85
2023-05-13T02:16:54.189Z,9.76
2023-05-13T02:19:41.410Z,9.77
2023-05-13T02:22:28.178Z,9.67
2023-05-13T02:25:14.495Z,10.03
2023-05-13T02:28:00.628Z,10.05
2023-05-13T02:30:47.282Z,10.03
2023-05-13T02:33:33.653Z,9.83
2023-05-13T02:36:19.975Z,9.92
2023-05-13T02:39:07.153Z,9.95
2023-05-13T02:41:54.198Z,9.98
2023-05-13T02:44:41.130Z,10.01
2023-05-13T02:47:29.517Z,9.86
2023-05-13T02:50:20.441Z,10.15
2023-05-13T02:53:07.365Z,10.36
2023-05-13T02:55:56.038Z,10.33
2023-05-13T02:58:44.961Z,10.69
2023-05-13T03:01:31.445Z,10.70
2023-05-13T03:04:17.875Z,10.85
2023-05-13T03:07:03.586Z,11.03
2023-05-13T03:09:50.096Z,10.94
2023-05-13T03:12:36.281Z,11.00
2023-05-13T03:15:22.516Z,10.93
2023-05-13T03:18:09.083Z,10.60
2023-05-13T03:20:55.547Z,10.69
2023-05-13T03:23:42.659Z,10.91
2023-05-13T03:26:29.412Z,10.62
2023-05-13T03:29:16.058Z,10.77
2023-05-13T03:32:06.554Z,10.29
2023-05-13T03:34:53.696Z,10.51
2023-05-13T03:37:40.060Z,10.64
2023-05-13T03:40:27.549Z,10.45
2023-05-13T03:43:14.164Z,10.46
2023-05-13T03:46:04.816Z,10.57
2023-05-13T03:48:51.122Z,10.48
2023-05-13T03:51:37.347Z,10.53
2023-05-13T03:54:24.953Z,10.59
2023-05-13T03:57:10.622Z,10.63
2023-05-13T03:59:57.067Z,10.72
2023-05-13T04:02:43.496Z,10.54
2023-05-13T04:05:31.194Z,11.02
2023-05-13T04:08:17.434Z,11.41
2023-05-13T04:11:04.053Z,11.56
2023-05-13T04:13:50.195Z,11.71
2023-05-13T04:16:36.124Z,12.03
2023-05-13T04:19:22.034Z,12.35
2023-05-13T04:22:08.648Z,12.48
2023-05-13T04:24:56.653Z,12.83
2023-05-13T04:27:43.156Z,13.00
2023-05-13T04:30:36.324Z,13.24
2023-05-13T04:33:23.215Z,13.50
2023-05-13T04:36:09.370Z,13.61
2023-05-13T04:38:55.699Z,13.98
2023-05-13T04:41:42.202Z,14.18
2023-05-13T04:44:28.064Z,14.32
2023-05-13T04:47:13.916Z,14.27
2023-05-13T04:50:00.038Z,14.46
2023-05-13T04:52:47.669Z,14.63
2023-05-13T04:55:39.033Z,14.74
2023-05-13T04:58:25.310Z,14.96
2023-05-13T05:01:11.895Z,14.88
2023-05-13T05:03:58.453Z,15.00
2023-05-13T05:06:45.001Z,15.02
2023-05-13T05:09:31.167Z,15.28
2023-05-13T05:12:19.134Z,15.38
2023-05-13T05:15:06.235Z,15.40
2023-05-13T05:17:52.747Z,15.45
2023-05-13T05:20:38.939Z,15.58
2023-05-13T05:23:28.798Z,15.76
2023-05-13T05:26:15.360Z,15.84
2023-05-13T05:29:02.247Z,15.97
2023-05-13T05:31:49.171Z,16.02
2023-05-13T05:34:35.395Z,16.24
2023-05-13T05:37:21.453Z,16.22
2023-05-13T05:40:08.505Z,16.55
2023-05-13T05:42:58.546Z,16.59
2023-05-13T05:45:46.258Z,16.68
2023-05-13T05:48:36.858Z,16.68
2023-05-13T05:51:23.781Z,16.57
2023-05-13T05:54:10.040Z,16.42
2023-05-13T05:56:57.268Z,16.26
2023-05-13T05:59:43.309Z,15.86
2023-05-13T06:02:29.915Z,16.02
2023-05-13T06:05:16.594Z,16.24
2023-05-13T06:08:03.925Z,16.42
2023-05-13T06:10:50.083Z,16.72
2023-05-13T06:13:36.608Z,16.87
2023-05-13T06:16:23.495Z,17.28
2023-05-13T06:19:11.355Z,17.58
2023-05-13T06:21:57.605Z,17.77
2023-05-13T06:24:44.918Z,17.89
2023-05-13T06:27:34.180Z,17.91
2023-05-13T06:30:21.801Z,17.95
2023-05-13T06:33:10.564Z,17.99
2023-05-13T06:35:56.907Z,18.30
2023-05-13T06:38:44.003Z,18.45
2023-05-13T06:41:30.347Z,18.82
2023-05-13T06:44:22.270Z,19.04
2023-05-13T06:47:10.481Z,19.07
2023-05-13T06:49:57.408Z,19.27
2023-05-13T06:52:43.643Z,19.48
2023-05-13T06:55:29.850Z,19.63
2023-05-13T06:58:15.808Z,19.77
2023-05-13T07:01:02.322Z,19.93
2023-05-13T07:03:49.109Z,19.92
2023-05-13T07:06:35.504Z,19.87
2023-05-13T07:09:21.800Z,20.08
2023-05-13T07:12:07.587Z,20.05
2023-05-13T07:14:54.512Z,20.10
2023-05-13T07:17:41.156Z,20.45
2023-05-13T07:20:27.785Z,20.35
2023-05-13T07:23:14.462Z,20.45
2023-05-13T07:26:01.064Z,20.24
2023-05-13T07:28:46.711Z,20.58
2023-05-13T07:31:33.558Z,20.62
2023-05-13T07:34:19.840Z,20.59
2023-05-13T07:37:06.048Z,20.51
2023-05-13T07:39:53.615Z,20.78
2023-05-13T07:42:40.664Z,20.97
2023-05-13T07:45:26.870Z,21.10
2023-05-13T07:48:13.203Z,20.97
2023-05-13T07:50:59.899Z,20.81
2023-05-13T07:53:47.234Z,20.92
2023-05-13T07:56:33.739Z,20.89
2023-05-13T07:59:20.819Z,20.99
2023-05-13T08:02:07.966Z,20.80
2023-05-13T08:04:54.465Z,21.04
2023-05-13T08:07:40.564Z,21.00
2023-05-13T08:10:27.421Z,21.03
2023-05-13T08:13:13.668Z,21.01
2023-05-13T08:16:03.612Z,20.88
2023-05-13T08:18:49.722Z,20.75
2023-05-13T08:21:37.225Z,21.17
2023-05-13T08:24:22.833Z,21.04
2023-05-13T08:27:09.494Z,20.97
2023-05-13T08:29:55.103Z,21.02
2023-05-13T08:32:41.492Z,20.94
2023-05-13T08:35:27.644Z,20.86
2023-05-13T08:38:13.961Z,20.78
2023-05-13T08:41:00.264Z,20.83
2023-05-13T08:43:47.423Z,20.76
2023-05-13T08:46:35.199Z,20.85
2023-05-13T08:49:21.818Z,20.87
2023-05-13T08:52:08.134Z,20.94
2023-05-13T08:54:54.826Z,20.92
2023-05-13T08:57:40.789Z,20.75
2023-05-13T09:00:27.305Z,20.93
2023-05-13T09:03:14.019Z,21.08
2023-05-13T09:06:01.925Z,21.02
2023-05-13T09:08:48.806Z,21.01
2023-05-13T09:11:35.194Z,20.90
2023-05-13T09:14:21.152Z,20.87
2023-05-13T09:17:07.990Z,20.74
2023-05-13T09:19:54.174Z,20.96
2023-05-13T09:22:51.806Z,20.96
2023-05-13T09:25:38.989Z,21.09
2023-05-13T09:28:26.410Z,21.03
2023-05-13T09:31:12.820Z,20.89
2023-05-13T09:33:59.269Z,20.91
2023-05-13T09:36:45.597Z,20.99
2023-05-13T09:39:39.793Z,21.03
2023-05-13T09:42:25.432Z,20.89
2023-05-13T09:45:16.409Z,20.93
2023-05-13T09:48:02.928Z,21.05
2023-05-13T09:50:50.594Z,21.05
2023-05-13T09:53:36.783Z,21.05
2023-05-13T09:56:24.154Z,21.00
2023-05-13T09:59:10.320Z,20.65
2023-05-13T10:02:00.292Z,20.86
2023-05-13T10:04:46.792Z,20.92
2023-05-13T10:07:34.877Z,20.83
2023-05-13T10:10:22.117Z,20.82
2023-05-13T10:13:11.069Z,20.85
2023-05-13T10:15:57.799Z,20.87
2023-05-13T10:18:44.418Z,20.94
2023-05-13T10:21:31.342Z,20.71
2023-05-13T10:24:17.793Z,20.64
2023-05-13T10:27:04.978Z,20.82
2023-05-13T10:29:52.563Z,20.88
2023-05-13T10:32:40.153Z,20.88
2023-05-13T10:35:31.012Z,21.02
2023-05-13T10:38:28.715Z,21.10
2023-05-13T10:41:40.196Z,21.07
2023-05-13T10:44:26.358Z,21.09
2023-05-13T10:47:13.906Z,21.04
2023-05-13T10:50:05.187Z,20.99
2023-05-13T10:52:56.566Z,20.92
2023-05-13T10:55:46.153Z,20.97
2023-05-13T10:58:33.973Z,21.01
2023-05-13T11:01:28.971Z,21.15
2023-05-13T11:04:18.490Z,21.10
2023-05-13T11:07:15.400Z,21.12
2023-05-13T11:10:02.026Z,21.24
2023-05-13T11:13:16.260Z,21.33
2023-05-13T11:16:06.517Z,21.34
2023-05-13T11:18:53.551Z,21.23
2023-05-13T11:21:39.916Z,21.29
2023-05-13T11:24:26.637Z,21.06
2023-05-13T11:27:20.311Z,21.16
2023-05-13T11:30:23.826Z,21.30
2023-05-13T11:33:12.538Z,21.15
2023-05-13T11:35:59.167Z,21.11
2023-05-13T11:38:46.149Z,21.07
2023-05-13T11:41:34.156Z,20.97
2023-05-13T11:44:22.408Z,20.74
2023-05-13T11:47:09.241Z,20.77
2023-05-13T11:49:55.960Z,20.76
2023-05-13T11:52:42.219Z,20.77
2023-05-13T11:55:31.333Z,20.51
2023-05-13T11:58:17.926Z,20.53
2023-05-13T12:01:03.762Z,20.62
2023-05-13T12:03:50.102Z,20.49
2023-05-13T12:06:44.310Z,20.50
2023-05-13T12:09:30.687Z,20.54
2023-05-13T12:12:17.716Z,20.40
2023-05-13T12:15:06.658Z,20.58
2023-05-13T12:17:53.509Z,20.71
2023-05-13T12:20:39.547Z,20.80
2023-05-13T12:23:25.823Z,20.73
2023-05-13T12:26:12.291Z,20.74
2023-05-13T12:29:01.385Z,20.76
2023-05-13T12:32:04.781Z,20.75
2023-05-13T12:34:51.633Z,20.76
2023-05-13T12:37:37.826Z,20.81
2023-05-13T12:40:27.157Z,20.75
2023-05-13T12:43:13.470Z,20.84
2023-05-13T12:46:00.145Z,20.87
2023-05-13T12:48:46.105Z,20.73
2023-05-13T12:51:35.904Z,20.67
2023-05-13T12:54:22.029Z,20.56
2023-05-13T12:57:11.101Z,20.56
2023-05-13T12:59:57.249Z,20.62
2023-05-13T13:02:43.734Z,20.69
2023-05-13T13:05:29.872Z,20.77
2023-05-13T13:08:16.201Z,20.78
2023-05-13T13:11:02.255Z,20.81
2023-05-13T13:13:50.013Z,20.73
2023-05-13T13:16:36.170Z,20.50
2023-05-13T13:19:22.859Z,20.58
2023-05-13T13:22:09.335Z,20.57
2023-05-13T13:24:56.038Z,20.66
2023-05-13T13:27:42.162Z,20.66
2023-05-13T13:30:29.591Z,20.69
2023-05-13T13:33:16.563Z,20.72
2023-05-13T13:36:03.844Z,20.77
2023-05-13T13:38:50.123Z,20.71
2023-05-13T13:41:37.379Z,20.77
2023-05-13T13:44:23.532Z,20.90
2023-05-13T13:47:10.218Z,20.89
2023-05-13T13:49:56.351Z,20.91
2023-05-13T13:52:42.595Z,20.91
2023-05-13T13:55:29.256Z,20.75
2023-05-13T13:58:15.883Z,20.65
2023-05-13T14:01:02.261Z,20.64
2023-05-13T14:03:50.848Z,20.51
2023-05-13T14:06:37.162Z,20.47
2023-05-13T14:09:23.715Z,20.49
2023-05-13T14:12:10.111Z,20.55
2023-05-13T14:14:57.624Z,20.61
2023-05-13T14:17:44.274Z,20.59
2023-05-13T14:20:30.642Z,20.69
2023-05-13T14:23:18.414Z,20.62
2023-05-13T14:26:07.623Z,20.64
2023-05-13T14:28:54.871Z,20.59
2023-05-13T14:31:41.350Z,20.49
2023-05-13T14:34:27.304Z,20.43
2023-05-13T14:37:13.914Z,20.41
2023-05-13T14:39:59.879Z,20.43
2023-05-13T14:42:46.509Z,20.41
2023-05-13T14:45:33.023Z,20.49
2023-05-13T14:48:19.752Z,20.52
2023-05-13T14:51:05.834Z,20.55
2023-05-13T14:53:51.699Z,20.50
2023-05-13T14:56:38.045Z,20.35
2023-05-13T14:59:24.552Z,20.49
2023-05-13T15:02:10.834Z,20.47
2023-05-13T15:04:57.487Z,20.45
2023-05-13T15:07:43.147Z,20.43
2023-05-13T15:10:29.605Z,20.47
2023-05-13T15:13:15.914Z,20.46
2023-05-13T15:16:03.810Z,20.50
2023-05-13T15:18:50.455Z,20.37
2023-05-13T15:21:36.778Z,20.45
2023-05-13T15:24:22.700Z,20.50
2023-05-13T15:27:08.838Z,20.44
2023-05-13T15:29:55.190Z,20.40
2023-05-13T15:32:41.729Z,20.47
2023-05-13T15:35:27.572Z,20.39
2023-05-13T15:38:14.151Z,20.45
2023-05-13T15:41:01.207Z,20.44
2023-05-13T15:43:49.076Z,20.49
2023-05-13T15:46:35.745Z,20.41
2023-05-13T15:49:22.937Z,20.47
2023-05-13T15:52:09.037Z,20.47
2023-05-13T15:54:55.085Z,20.49
2023-05-13T15:57:41.282Z,20.48
2023-05-13T16:00:27.943Z,20.46
2023-05-13T16:03:14.666Z,20.40
2023-05-13T16:06:00.912Z,20.38
2023-05-13T16:08:46.648Z,20.37
2023-05-13T16:11:32.815Z,20.36
2023-05-13T16:14:19.596Z,20.29
2023-05-13T16:17:05.958Z,20.25
2023-05-13T16:19:52.560Z,20.10
2023-05-13T16:22:39.203Z,20.24
2023-05-13T16:25:25.149Z,20.20
2023-05-13T16:28:12.160Z,20.18
2023-05-13T16:30:58.752Z,19.98
2023-05-13T16:33:46.444Z,20.09
2023-05-13T16:36:32.620Z,20.09
2023-05-13T16:39:19.278Z,20.04
2023-05-13T16:42:06.645Z,19.94
2023-05-13T16:44:53.022Z,19.79
2023-05-13T16:47:39.326Z,19.89
2023-05-13T16:50:28.063Z,20.00
2023-05-13T16:53:13.889Z,19.89
2023-05-13T16:56:00.938Z,19.87
2023-05-13T16:58:47.122Z,19.92
2023-05-13T17:01:36.840Z,19.74
2023-05-13T17:04:24.139Z,19.90
2023-05-13T17:07:10.681Z,19.88
2023-05-13T17:09:56.837Z,19.70
2023-05-13T17:12:43.448Z,19.73
2023-05-13T17:15:29.556Z,19.78
2023-05-13T17:18:15.965Z,19.69
2023-05-13T17:21:04.640Z,19.60
2023-05-13T17:23:51.024Z,19.57
2023-05-13T17:26:38.888Z,19.56
2023-05-13T17:29:25.951Z,19.37
2023-05-13T17:32:12.131Z,19.29
2023-05-13T17:34:59.311Z,19.32
2023-05-13T17:37:45.407Z,19.24
2023-05-13T17:40:31.312Z,19.11
2023-05-13T17:43:17.401Z,19.13
2023-05-13T17:46:03.901Z,19.06
2023-05-13T17:48:49.800Z,18.91
2023-05-13T17:51:35.912Z,18.88
2023-05-13T17:54:22.019Z,18.71
2023-05-13T17:57:10.022Z,18.70
2023-05-13T17:59:56.037Z,18.62
2023-05-13T18:02:42.063Z,18.45
2023-05-13T18:05:28.522Z,18.47
2023-05-13T18:08:15.849Z,18.35
2023-05-13T18:11:02.804Z,18.29
2023-05-13T18:13:49.598Z,18.23
2023-05-13T18:16:35.758Z,18.15
2023-05-13T18:19:22.946Z,18.08
2023-05-13T18:22:09.429Z,17.97
2023-05-13T18:24:56.404Z,17.88
2023-05-13T18:27:42.527Z,17.72
2023-05-13T18:30:30.979Z,17.71
2023-05-13T18:33:20.570Z,17.43
2023-05-13T18:36:09.830Z,17.53
2023-05-13T18:38:55.831Z,17.37
2023-05-13T18:41:42.278Z,17.29
2023-05-13T18:44:28.120Z,17.17
2023-05-13T18:47:14.461Z,16.96
2023-05-13T18:50:00.198Z,16.69
2023-05-13T18:52:46.525Z,16.75
2023-05-13T18:55:32.775Z,16.45
2023-05-13T18:58:19.081Z,16.32
2023-05-13T19:01:04.974Z,16.45
2023-05-13T19:03:52.251Z,16.30
2023-05-13T19:06:39.581Z,16.20
2023-05-13T19:09:25.830Z,16.20
2023-05-13T19:12:11.433Z,16.12
2023-05-13T19:14:57.532Z,15.98
2023-05-13T19:17:43.330Z,15.97
2023-05-13T19:20:30.237Z,15.91
2023-05-13T19:23:16.223Z,15.80
2023-05-13T19:26:02.531Z,15.76
2023-05-13T19:28:48.573Z,15.60
2023-05-13T19:31:35.084Z,15.67
2023-05-13T19:34:21.336Z,15.51
2023-05-13T19:37:07.606Z,15.38
2023-05-13T19:39:53.666Z,15.48
2023-05-13T19:42:39.853Z,15.43
2023-05-13T19:45:25.950Z,15.50
2023-05-13T19:48:13.862Z,15.43
2023-05-13T19:51:00.915Z,15.43
2023-05-13T19:53:47.384Z,15.38
2023-05-13T19:56:33.692Z,15.35
2023-05-13T19:59:20.382Z,15.40
2023-05-13T20:02:06.672Z,15.44
2023-05-13T20:04:52.832Z,15.43
2023-05-13T20:07:39.706Z,15.49
2023-05-13T20:10:26.414Z,15.49
2023-05-13T20:13:13.009Z,15.35
2023-05-13T20:16:00.244Z,15.53
2023-05-13T20:18:46.499Z,15.55
2023-05-13T20:21:33.371Z,15.41
2023-05-13T20:24:19.749Z,15.51
2023-05-13T20:27:06.730Z,15.57
2023-05-13T20:29:52.644Z,15.60
2023-05-13T20:32:38.963Z,15.43
2023-05-13T20:35:25.125Z,15.52
2023-05-13T20:38:11.827Z,15.38
2023-05-13T20:40:57.818Z,15.41
2023-05-13T20:43:43.944Z,15.51
2023-05-13T20:46:30.203Z,15.57
2023-05-13T20:49:16.722Z,15.54
2023-05-13T20:52:09.160Z,15.47
2023-05-13T20:54:55.729Z,15.35
2023-05-13T20:57:42.017Z,15.40
2023-05-13T21:00:28.139Z,15.24
2023-05-13T21:03:14.580Z,15.30
2023-05-13T21:06:00.943Z,15.23
2023-05-13T21:08:46.664Z,15.14
2023-05-13T21:11:32.916Z,15.08
2023-05-13T21:14:19.196Z,15.00
2023-05-13T21:17:05.804Z,14.96
2023-05-13T21:19:52.517Z,14.90
2023-05-13T21:22:39.111Z,14.86
2023-05-13T21:25:25.420Z,14.79
2023-05-13T21:28:12.409Z,14.75
2023-05-13T21:31:00.113Z,14.74
2023-05-13T21:33:49.192Z,14.62
2023-05-13T21:36:39.165Z,14.62
2023-05-13T21:39:25.962Z,14.55
2023-05-13T21:42:12.840Z,14.54
2023-05-13T21:44:59.587Z,14.46
2023-05-13T21:47:48.116Z,14.41
2023-05-13T21:50:36.211Z,14.35
2023-05-13T21:53:22.894Z,14.28
2023-05-13T21:56:10.295Z,14.20
2023-05-13T21:58:57.150Z,14.06
2023-05-13T22:01:43.760Z,14.03
2023-05-13T22:04:30.099Z,13.98
2023-05-13T22:07:16.584Z,13.80
2023-05-13T22:10:03.163Z,13.84
2023-05-13T22:12:50.006Z,13.85
2023-05-13T22:15:36.880Z,13.75
2023-05-13T22:18:23.988Z,13.63
2023-05-13T22:21:10.558Z,13.61
2023-05-13T22:23:57.391Z,13.58
2023-05-13T22:26:44.001Z,13.61
2023-05-13T22:29:30.275Z,13.54
2023-05-13T22:32:16.619Z,13.46
2023-05-13T22:35:03.211Z,13.34
2023-05-13T22:37:50.710Z,13.54
2023-05-13T22:40:37.331Z,13.41
2023-05-13T22:43:23.203Z,13.22
2023-05-13T22:46:09.326Z,13.23
2023-05-13T22:48:55.562Z,13.03
2023-05-13T22:51:41.967Z,13.14
2023-05-13T22:54:28.324Z,13.08
2023-05-13T22:57:14.476Z,12.97
2023-05-13T23:00:00.654Z,12.96
2023-05-13T23:02:47.012Z,12.89
2023-05-13T23:05:33.143Z,12.72
2023-05-13T23:08:19.257Z,12.64
2023-05-13T23:11:05.571Z,12.50
2023-05-13T23:13:52.371Z,12.43
2023-05-13T23:16:38.493Z,12.38
2023-05-13T23:19:25.945Z,12.37
2023-05-13T23:22:12.268Z,12.31
2023-05-13T23:24:59.023Z,12.29
2023-05-13T23:27:45.553Z,12.23
2023-05-13T23:30:32.048Z,12.18
2023-05-13T23:33:18.036Z,12.14
2023-05-13T23:36:04.135Z,12.09
2023-05-13T23:38:50.955Z,11.95
2023-05-13T23:41:37.217Z,12.09
2023-05-13T23:44:23.469Z,12.04
2023-05-13T23:47:09.478Z,11.83
2023-05-13T23:49:55.760Z,11.88
2023-05-13T23:52:42.365Z,11.88
2023-05-13T23:55:29.578Z,11.83
2023-05-13T23:58:16.209Z,11.77
